sensor_id;sensor_type;location;lat;lon;timestamp;temperature;humidity
10344;DHT22;5217;43.960;10.954;2024-02-15T00:01:58;15.30;97.30
10344;DHT22;5217;43.960;10.954;2024-02-15T00:04:27;15.30;97.30
10344;DHT22;5217;43.960;10.954;2024-02-15T00:06:57;15.30;97.30
10344;DHT22;5217;43.960;10.954;2024-02-15T00:09:25;15.30;97.30
10344;DHT22;5217;43.960;10.954;2024-02-15T00:11:54;15.30;97.30
10344;DHT22;5217;43.960;10.954;2024-02-15T00:14:22;15.20;97.30
10344;DHT22;5217;43.960;10.954;2024-02-15T00:16:50;15.20;97.20
10344;DHT22;5217;43.960;10.954;2024-02-15T00:19:19;15.20;97.10
10344;DHT22;5217;43.960;10.954;2024-02-15T00:21:48;15.20;97.10
10344;DHT22;5217;43.960;10.954;2024-02-15T00:24:18;15.20;97.10
10344;DHT22;5217;43.960;10.954;2024-02-15T00:26:47;15.10;97.20
10344;DHT22;5217;43.960;10.954;2024-02-15T00:29:15;15.20;97.40
10344;DHT22;5217;43.960;10.954;2024-02-15T00:31:44;15.10;97.50
10344;DHT22;5217;43.960;10.954;2024-02-15T00:34:12;15.10;97.50
10344;DHT22;5217;43.960;10.954;2024-02-15T00:36:42;15.10;97.50
10344;DHT22;5217;43.960;10.954;2024-02-15T00:39:11;15.10;97.50
10344;DHT22;5217;43.960;10.954;2024-02-15T00:41:42;15.10;97.50
10344;DHT22;5217;43.960;10.954;2024-02-15T00:44:10;15.10;97.30
10344;DHT22;5217;43.960;10.954;2024-02-15T00:46:39;15.00;97.30
10344;DHT22;5217;43.960;10.954;2024-02-15T00:49:08;15.00;97.40
10344;DHT22;5217;43.960;10.954;2024-02-15T00:51:37;15.00;97.40
10344;DHT22;5217;43.960;10.954;2024-02-15T00:54:06;15.00;97.50
10344;DHT22;5217;43.960;10.954;2024-02-15T00:56:35;15.00;97.50
10344;DHT22;5217;43.960;10.954;2024-02-15T00:59:05;15.00;97.50
10344;DHT22;5217;43.960;10.954;2024-02-15T01:01:33;15.00;97.60
10344;DHT22;5217;43.960;10.954;2024-02-15T01:04:03;14.90;97.50
10344;DHT22;5217;43.960;10.954;2024-02-15T01:06:32;14.90;97.50
10344;DHT22;5217;43.960;10.954;2024-02-15T01:09:01;14.90;97.60
10344;DHT22;5217;43.960;10.954;2024-02-15T01:11:30;14.90;97.50
10344;DHT22;5217;43.960;10.954;2024-02-15T01:13:59;14.90;97.60
10344;DHT22;5217;43.960;10.954;2024-02-15T01:16:29;14.90;97.60
10344;DHT22;5217;43.960;10.954;2024-02-15T01:18:58;14.90;97.60
10344;DHT22;5217;43.960;10.954;2024-02-15T01:21:27;14.90;97.50
10344;DHT22;5217;43.960;10.954;2024-02-15T01:23:55;14.90;97.60
10344;DHT22;5217;43.960;10.954;2024-02-15T01:26:23;14.90;97.60
10344;DHT22;5217;43.960;10.954;2024-02-15T01:28:52;14.90;97.60
10344;DHT22;5217;43.960;10.954;2024-02-15T01:31:21;14.90;97.50
10344;DHT22;5217;43.960;10.954;2024-02-15T01:33:50;14.80;97.50
10344;DHT22;5217;43.960;10.954;2024-02-15T01:36:19;14.80;97.50
10344;DHT22;5217;43.960;10.954;2024-02-15T01:38:47;14.80;97.50
10344;DHT22;5217;43.960;10.954;2024-02-15T01:41:15;14.80;97.60
10344;DHT22;5217;43.960;10.954;2024-02-15T01:43:44;14.80;97.70
10344;DHT22;5217;43.960;10.954;2024-02-15T01:46:13;14.70;97.60
10344;DHT22;5217;43.960;10.954;2024-02-15T01:48:42;14.80;97.60
10344;DHT22;5217;43.960;10.954;2024-02-15T01:51:14;14.80;97.60
10344;DHT22;5217;43.960;10.954;2024-02-15T01:53:43;14.70;97.60
10344;DHT22;5217;43.960;10.954;2024-02-15T01:56:14;14.70;97.60
10344;DHT22;5217;43.960;10.954;2024-02-15T01:58:45;14.70;97.60
10344;DHT22;5217;43.960;10.954;2024-02-15T02:01:15;14.70;97.60
10344;DHT22;5217;43.960;10.954;2024-02-15T02:03:44;14.70;97.60
10344;DHT22;5217;43.960;10.954;2024-02-15T02:06:13;14.70;97.60
10344;DHT22;5217;43.960;10.954;2024-02-15T02:08:42;14.70;97.60
10344;DHT22;5217;43.960;10.954;2024-02-15T02:11:10;14.70;97.50
10344;DHT22;5217;43.960;10.954;2024-02-15T02:13:40;14.60;97.50
10344;DHT22;5217;43.960;10.954;2024-02-15T02:16:26;14.60;97.50
10344;DHT22;5217;43.960;10.954;2024-02-15T02:18:56;14.60;97.50
10344;DHT22;5217;43.960;10.954;2024-02-15T02:21:26;14.50;97.50
10344;DHT22;5217;43.960;10.954;2024-02-15T02:23:56;14.50;97.60
10344;DHT22;5217;43.960;10.954;2024-02-15T02:26:26;14.50;97.60
10344;DHT22;5217;43.960;10.954;2024-02-15T02:28:55;14.50;97.70
10344;DHT22;5217;43.960;10.954;2024-02-15T02:31:23;14.50;97.80
10344;DHT22;5217;43.960;10.954;2024-02-15T02:33:53;14.50;97.80
10344;DHT22;5217;43.960;10.954;2024-02-15T02:36:22;14.50;97.80
10344;DHT22;5217;43.960;10.954;2024-02-15T02:38:53;14.50;97.80
10344;DHT22;5217;43.960;10.954;2024-02-15T02:41:22;14.50;97.90
10344;DHT22;5217;43.960;10.954;2024-02-15T02:43:52;14.50;97.80
10344;DHT22;5217;43.960;10.954;2024-02-15T02:46:20;14.50;97.90
10344;DHT22;5217;43.960;10.954;2024-02-15T02:48:48;14.40;97.90
10344;DHT22;5217;43.960;10.954;2024-02-15T02:51:17;14.40;97.90
10344;DHT22;5217;43.960;10.954;2024-02-15T02:53:46;14.40;97.90
10344;DHT22;5217;43.960;10.954;2024-02-15T02:56:14;14.40;97.80
10344;DHT22;5217;43.960;10.954;2024-02-15T02:58:42;14.40;97.70
10344;DHT22;5217;43.960;10.954;2024-02-15T03:01:12;14.40;97.80
10344;DHT22;5217;43.960;10.954;2024-02-15T03:03:41;14.40;97.90
10344;DHT22;5217;43.960;10.954;2024-02-15T03:06:09;14.40;97.90
10344;DHT22;5217;43.960;10.954;2024-02-15T03:08:38;14.40;97.80
10344;DHT22;5217;43.960;10.954;2024-02-15T03:11:07;14.30;97.80
10344;DHT22;5217;43.960;10.954;2024-02-15T03:13:35;14.30;97.80
10344;DHT22;5217;43.960;10.954;2024-02-15T03:16:04;14.30;97.90
10344;DHT22;5217;43.960;10.954;2024-02-15T03:18:35;14.30;97.90
10344;DHT22;5217;43.960;10.954;2024-02-15T03:21:04;14.30;98.00
10344;DHT22;5217;43.960;10.954;2024-02-15T03:23:32;14.30;98.10
10344;DHT22;5217;43.960;10.954;2024-02-15T03:26:02;14.30;98.00
10344;DHT22;5217;43.960;10.954;2024-02-15T03:28:30;14.30;98.00
10344;DHT22;5217;43.960;10.954;2024-02-15T03:30:59;14.20;98.00
10344;DHT22;5217;43.960;10.954;2024-02-15T03:33:28;14.20;97.90
10344;DHT22;5217;43.960;10.954;2024-02-15T03:36:03;14.20;97.90
10344;DHT22;5217;43.960;10.954;2024-02-15T03:38:32;14.20;98.00
10344;DHT22;5217;43.960;10.954;2024-02-15T03:41:00;14.20;97.90
10344;DHT22;5217;43.960;10.954;2024-02-15T03:43:29;14.20;97.80
10344;DHT22;5217;43.960;10.954;2024-02-15T03:45:58;14.10;97.60
10344;DHT22;5217;43.960;10.954;2024-02-15T03:48:26;14.10;97.50
10344;DHT22;5217;43.960;10.954;2024-02-15T03:50:55;14.10;97.50
10344;DHT22;5217;43.960;10.954;2024-02-15T03:53:26;14.00;97.30
10344;DHT22;5217;43.960;10.954;2024-02-15T03:55:56;14.00;97.30
10344;DHT22;5217;43.960;10.954;2024-02-15T03:58:24;14.00;97.30
10344;DHT22;5217;43.960;10.954;2024-02-15T04:00:53;14.00;97.40
10344;DHT22;5217;43.960;10.954;2024-02-15T04:03:23;14.00;97.40
10344;DHT22;5217;43.960;10.954;2024-02-15T04:05:51;14.00;97.50
10344;DHT22;5217;43.960;10.954;2024-02-15T04:08:20;14.00;97.50
10344;DHT22;5217;43.960;10.954;2024-02-15T04:10:50;14.00;97.40
10344;DHT22;5217;43.960;10.954;2024-02-15T04:13:19;13.90;97.40
10344;DHT22;5217;43.960;10.954;2024-02-15T04:15:48;13.90;97.50
10344;DHT22;5217;43.960;10.954;2024-02-15T04:18:19;13.90;97.60
10344;DHT22;5217;43.960;10.954;2024-02-15T04:20:49;13.90;97.30
10344;DHT22;5217;43.960;10.954;2024-02-15T04:23:18;13.90;97.30
10344;DHT22;5217;43.960;10.954;2024-02-15T04:25:49;13.80;97.20
10344;DHT22;5217;43.960;10.954;2024-02-15T04:28:19;13.80;97.30
10344;DHT22;5217;43.960;10.954;2024-02-15T04:30:47;13.80;97.30
10344;DHT22;5217;43.960;10.954;2024-02-15T04:33:16;13.80;97.30
10344;DHT22;5217;43.960;10.954;2024-02-15T04:35:45;13.80;97.40
10344;DHT22;5217;43.960;10.954;2024-02-15T04:38:16;13.80;97.50
10344;DHT22;5217;43.960;10.954;2024-02-15T04:40:46;13.80;97.40
10344;DHT22;5217;43.960;10.954;2024-02-15T04:43:16;13.70;97.50
10344;DHT22;5217;43.960;10.954;2024-02-15T04:45:45;13.70;97.70
10344;DHT22;5217;43.960;10.954;2024-02-15T04:48:14;13.70;97.70
10344;DHT22;5217;43.960;10.954;2024-02-15T04:50:43;13.70;97.70
10344;DHT22;5217;43.960;10.954;2024-02-15T04:53:12;13.70;97.70
10344;DHT22;5217;43.960;10.954;2024-02-15T04:55:41;13.70;97.70
10344;DHT22;5217;43.960;10.954;2024-02-15T04:58:09;13.70;97.70
10344;DHT22;5217;43.960;10.954;2024-02-15T05:00:39;13.70;97.60
10344;DHT22;5217;43.960;10.954;2024-02-15T05:03:09;13.60;97.30
10344;DHT22;5217;43.960;10.954;2024-02-15T05:05:38;13.60;97.00
10344;DHT22;5217;43.960;10.954;2024-02-15T05:08:07;13.60;97.00
10344;DHT22;5217;43.960;10.954;2024-02-15T05:10:36;13.60;97.00
10344;DHT22;5217;43.960;10.954;2024-02-15T05:13:06;13.50;97.00
10344;DHT22;5217;43.960;10.954;2024-02-15T05:15:35;13.60;96.90
10344;DHT22;5217;43.960;10.954;2024-02-15T05:18:05;13.50;96.80
10344;DHT22;5217;43.960;10.954;2024-02-15T05:20:35;13.50;96.70
10344;DHT22;5217;43.960;10.954;2024-02-15T05:23:05;13.50;96.60
10344;DHT22;5217;43.960;10.954;2024-02-15T05:25:34;13.50;96.60
10344;DHT22;5217;43.960;10.954;2024-02-15T05:28:03;13.40;96.80
10344;DHT22;5217;43.960;10.954;2024-02-15T05:30:33;13.40;96.80
10344;DHT22;5217;43.960;10.954;2024-02-15T05:33:01;13.40;96.60
10344;DHT22;5217;43.960;10.954;2024-02-15T05:35:32;13.40;96.50
10344;DHT22;5217;43.960;10.954;2024-02-15T05:38:02;13.40;96.20
10344;DHT22;5217;43.960;10.954;2024-02-15T05:40:33;13.30;96.10
10344;DHT22;5217;43.960;10.954;2024-02-15T05:43:01;13.30;96.30
10344;DHT22;5217;43.960;10.954;2024-02-15T05:45:31;13.30;96.50
10344;DHT22;5217;43.960;10.954;2024-02-15T05:48:05;13.30;96.60
10344;DHT22;5217;43.960;10.954;2024-02-15T05:50:37;13.30;96.70
10344;DHT22;5217;43.960;10.954;2024-02-15T05:53:05;13.30;96.80
10344;DHT22;5217;43.960;10.954;2024-02-15T05:55:35;13.30;96.80
10344;DHT22;5217;43.960;10.954;2024-02-15T05:58:05;13.30;96.90
10344;DHT22;5217;43.960;10.954;2024-02-15T06:00:36;13.30;96.90
10344;DHT22;5217;43.960;10.954;2024-02-15T06:03:06;13.30;96.90
10344;DHT22;5217;43.960;10.954;2024-02-15T06:05:38;13.30;96.80
10344;DHT22;5217;43.960;10.954;2024-02-15T06:08:07;13.30;96.60
10344;DHT22;5217;43.960;10.954;2024-02-15T06:10:35;13.30;96.50
10344;DHT22;5217;43.960;10.954;2024-02-15T06:13:03;13.20;96.50
10344;DHT22;5217;43.960;10.954;2024-02-15T06:15:32;13.20;96.40
10344;DHT22;5217;43.960;10.954;2024-02-15T06:18:00;13.20;96.30
10344;DHT22;5217;43.960;10.954;2024-02-15T06:20:30;13.20;96.40
10344;DHT22;5217;43.960;10.954;2024-02-15T06:23:03;13.20;96.60
10344;DHT22;5217;43.960;10.954;2024-02-15T06:25:33;13.20;96.60
10344;DHT22;5217;43.960;10.954;2024-02-15T06:28:01;13.20;96.60
10344;DHT22;5217;43.960;10.954;2024-02-15T06:30:40;13.20;96.60
10344;DHT22;5217;43.960;10.954;2024-02-15T06:33:26;13.20;96.60
10344;DHT22;5217;43.960;10.954;2024-02-15T06:36:12;13.20;96.60
10344;DHT22;5217;43.960;10.954;2024-02-15T06:38:59;13.20;96.70
10344;DHT22;5217;43.960;10.954;2024-02-15T06:41:45;13.20;96.70
10344;DHT22;5217;43.960;10.954;2024-02-15T06:44:13;13.20;96.80
10344;DHT22;5217;43.960;10.954;2024-02-15T06:46:42;13.20;97.10
10344;DHT22;5217;43.960;10.954;2024-02-15T06:49:10;13.20;96.80
10344;DHT22;5217;43.960;10.954;2024-02-15T06:51:40;13.20;96.80
10344;DHT22;5217;43.960;10.954;2024-02-15T06:54:10;13.20;96.90
10344;DHT22;5217;43.960;10.954;2024-02-15T06:56:39;13.20;97.00
10344;DHT22;5217;43.960;10.954;2024-02-15T06:59:09;13.30;97.30
10344;DHT22;5217;43.960;10.954;2024-02-15T07:01:41;13.30;97.30
10344;DHT22;5217;43.960;10.954;2024-02-15T07:04:09;13.20;97.30
10344;DHT22;5217;43.960;10.954;2024-02-15T07:06:39;13.30;97.40
10344;DHT22;5217;43.960;10.954;2024-02-15T07:09:15;13.30;97.20
10344;DHT22;5217;43.960;10.954;2024-02-15T07:11:45;13.30;97.10
10344;DHT22;5217;43.960;10.954;2024-02-15T07:14:18;13.30;97.10
10344;DHT22;5217;43.960;10.954;2024-02-15T07:16:48;13.30;97.30
10344;DHT22;5217;43.960;10.954;2024-02-15T07:19:18;13.30;97.60
10344;DHT22;5217;43.960;10.954;2024-02-15T07:21:47;13.30;97.80
10344;DHT22;5217;43.960;10.954;2024-02-15T07:24:17;13.30;98.00
10344;DHT22;5217;43.960;10.954;2024-02-15T07:26:46;13.30;98.40
10344;DHT22;5217;43.960;10.954;2024-02-15T07:29:14;13.30;98.80
10344;DHT22;5217;43.960;10.954;2024-02-15T07:31:43;13.40;99.00
10344;DHT22;5217;43.960;10.954;2024-02-15T07:34:12;13.40;99.20
10344;DHT22;5217;43.960;10.954;2024-02-15T07:36:42;13.40;99.40
10344;DHT22;5217;43.960;10.954;2024-02-15T07:39:12;13.40;99.50
10344;DHT22;5217;43.960;10.954;2024-02-15T07:41:52;13.40;99.50
10344;DHT22;5217;43.960;10.954;2024-02-15T07:44:21;13.40;99.40
10344;DHT22;5217;43.960;10.954;2024-02-15T07:46:50;13.40;99.40
10344;DHT22;5217;43.960;10.954;2024-02-15T07:49:19;13.40;99.50
10344;DHT22;5217;43.960;10.954;2024-02-15T07:51:47;13.40;99.40
10344;DHT22;5217;43.960;10.954;2024-02-15T07:54:20;13.40;99.80
10344;DHT22;5217;43.960;10.954;2024-02-15T07:56:49;13.50;99.50
10344;DHT22;5217;43.960;10.954;2024-02-15T07:59:19;13.40;99.40
10344;DHT22;5217;43.960;10.954;2024-02-15T08:01:47;13.50;99.50
10344;DHT22;5217;43.960;10.954;2024-02-15T08:04:18;13.50;99.40
10344;DHT22;5217;43.960;10.954;2024-02-15T08:06:47;13.50;99.50
10344;DHT22;5217;43.960;10.954;2024-02-15T08:09:16;13.60;99.00
10344;DHT22;5217;43.960;10.954;2024-02-15T08:11:47;13.60;98.90
10344;DHT22;5217;43.960;10.954;2024-02-15T08:14:15;13.60;99.10
10344;DHT22;5217;43.960;10.954;2024-02-15T08:16:45;13.60;99.50
10344;DHT22;5217;43.960;10.954;2024-02-15T08:19:13;13.60;99.90
10344;DHT22;5217;43.960;10.954;2024-02-15T08:21:42;13.60;99.90
10344;DHT22;5217;43.960;10.954;2024-02-15T08:24:13;13.60;99.90
10344;DHT22;5217;43.960;10.954;2024-02-15T08:26:42;13.60;99.90
10344;DHT22;5217;43.960;10.954;2024-02-15T08:29:11;13.60;99.90
10344;DHT22;5217;43.960;10.954;2024-02-15T08:31:41;13.70;99.90
10344;DHT22;5217;43.960;10.954;2024-02-15T08:34:11;13.70;99.90
10344;DHT22;5217;43.960;10.954;2024-02-15T08:36:41;13.70;99.90
10344;DHT22;5217;43.960;10.954;2024-02-15T08:39:09;13.80;99.90
10344;DHT22;5217;43.960;10.954;2024-02-15T08:41:39;13.80;99.90
10344;DHT22;5217;43.960;10.954;2024-02-15T08:44:08;13.80;99.90
10344;DHT22;5217;43.960;10.954;2024-02-15T08:46:39;13.80;99.90
10344;DHT22;5217;43.960;10.954;2024-02-15T08:49:07;13.80;99.90
10344;DHT22;5217;43.960;10.954;2024-02-15T08:51:37;13.80;99.90
10344;DHT22;5217;43.960;10.954;2024-02-15T08:54:05;13.80;99.90
10344;DHT22;5217;43.960;10.954;2024-02-15T08:56:35;13.80;99.90
10344;DHT22;5217;43.960;10.954;2024-02-15T08:59:04;13.90;99.90
10344;DHT22;5217;43.960;10.954;2024-02-15T09:01:32;13.90;99.90
10344;DHT22;5217;43.960;10.954;2024-02-15T09:04:01;13.80;99.90
10344;DHT22;5217;43.960;10.954;2024-02-15T09:06:30;13.90;99.90
10344;DHT22;5217;43.960;10.954;2024-02-15T09:09:00;13.90;99.90
10344;DHT22;5217;43.960;10.954;2024-02-15T09:11:29;13.90;99.90
10344;DHT22;5217;43.960;10.954;2024-02-15T09:13:57;13.90;99.90
10344;DHT22;5217;43.960;10.954;2024-02-15T09:16:26;13.90;99.90
10344;DHT22;5217;43.960;10.954;2024-02-15T09:18:54;13.90;99.90
10344;DHT22;5217;43.960;10.954;2024-02-15T09:21:23;13.90;99.90
10344;DHT22;5217;43.960;10.954;2024-02-15T09:23:52;13.90;99.90
10344;DHT22;5217;43.960;10.954;2024-02-15T09:26:22;13.90;99.90
10344;DHT22;5217;43.960;10.954;2024-02-15T09:28:50;13.90;99.90
10344;DHT22;5217;43.960;10.954;2024-02-15T09:31:20;13.90;99.90
10344;DHT22;5217;43.960;10.954;2024-02-15T09:33:48;13.90;99.90
10344;DHT22;5217;43.960;10.954;2024-02-15T09:36:17;13.90;99.90
10344;DHT22;5217;43.960;10.954;2024-02-15T09:38:45;13.90;99.90
10344;DHT22;5217;43.960;10.954;2024-02-15T09:41:15;13.90;99.90
10344;DHT22;5217;43.960;10.954;2024-02-15T09:43:45;13.90;99.90
10344;DHT22;5217;43.960;10.954;2024-02-15T09:46:14;13.90;99.90
10344;DHT22;5217;43.960;10.954;2024-02-15T09:48:49;14.00;99.90
10344;DHT22;5217;43.960;10.954;2024-02-15T09:51:20;13.90;99.90
10344;DHT22;5217;43.960;10.954;2024-02-15T09:53:50;13.90;99.90
10344;DHT22;5217;43.960;10.954;2024-02-15T09:56:18;13.90;99.90
10344;DHT22;5217;43.960;10.954;2024-02-15T09:58:52;14.00;99.90
10344;DHT22;5217;43.960;10.954;2024-02-15T10:01:23;14.00;99.90
10344;DHT22;5217;43.960;10.954;2024-02-15T10:03:52;14.00;99.90
10344;DHT22;5217;43.960;10.954;2024-02-15T10:06:20;14.00;99.90
10344;DHT22;5217;43.960;10.954;2024-02-15T10:08:50;14.00;99.90
10344;DHT22;5217;43.960;10.954;2024-02-15T10:11:19;14.10;99.90
10344;DHT22;5217;43.960;10.954;2024-02-15T10:13:47;14.10;99.90
10344;DHT22;5217;43.960;10.954;2024-02-15T10:16:18;14.10;99.90
10344;DHT22;5217;43.960;10.954;2024-02-15T10:18:52;14.10;99.90
10344;DHT22;5217;43.960;10.954;2024-02-15T10:21:26;14.10;99.90
10344;DHT22;5217;43.960;10.954;2024-02-15T10:24:05;14.10;99.90
10344;DHT22;5217;43.960;10.954;2024-02-15T10:26:35;14.20;99.90
10344;DHT22;5217;43.960;10.954;2024-02-15T10:29:08;14.20;99.90
10344;DHT22;5217;43.960;10.954;2024-02-15T10:31:40;14.30;99.90
10344;DHT22;5217;43.960;10.954;2024-02-15T10:34:09;14.30;99.90
10344;DHT22;5217;43.960;10.954;2024-02-15T10:36:42;14.30;99.90
10344;DHT22;5217;43.960;10.954;2024-02-15T10:39:14;14.40;99.90
10344;DHT22;5217;43.960;10.954;2024-02-15T10:41:48;14.50;99.90
10344;DHT22;5217;43.960;10.954;2024-02-15T10:44:17;14.60;99.90
10344;DHT22;5217;43.960;10.954;2024-02-15T10:46:48;14.70;99.90
10344;DHT22;5217;43.960;10.954;2024-02-15T10:49:21;14.70;99.90
10344;DHT22;5217;43.960;10.954;2024-02-15T10:51:55;14.80;99.90
10344;DHT22;5217;43.960;10.954;2024-02-15T10:54:41;14.90;99.90
10344;DHT22;5217;43.960;10.954;2024-02-15T10:57:11;15.00;99.90
10344;DHT22;5217;43.960;10.954;2024-02-15T10:59:49;15.10;99.90
10344;DHT22;5217;43.960;10.954;2024-02-15T11:02:27;15.10;99.90
10344;DHT22;5217;43.960;10.954;2024-02-15T11:05:02;15.20;99.90
10344;DHT22;5217;43.960;10.954;2024-02-15T11:07:32;15.20;99.90
10344;DHT22;5217;43.960;10.954;2024-02-15T11:10:02;15.30;99.90
10344;DHT22;5217;43.960;10.954;2024-02-15T11:12:38;15.40;99.90
10344;DHT22;5217;43.960;10.954;2024-02-15T11:15:40;15.40;99.90
10344;DHT22;5217;43.960;10.954;2024-02-15T11:18:10;15.50;99.90
10344;DHT22;5217;43.960;10.954;2024-02-15T11:20:49;15.50;99.90
10344;DHT22;5217;43.960;10.954;2024-02-15T11:23:27;15.50;99.90
10344;DHT22;5217;43.960;10.954;2024-02-15T11:25:58;15.60;99.90
10344;DHT22;5217;43.960;10.954;2024-02-15T11:28:38;15.60;99.90
10344;DHT22;5217;43.960;10.954;2024-02-15T11:31:10;15.70;99.90
10344;DHT22;5217;43.960;10.954;2024-02-15T11:37:07;15.80;99.90
10344;DHT22;5217;43.960;10.954;2024-02-15T11:39:41;15.90;99.90
10344;DHT22;5217;43.960;10.954;2024-02-15T11:42:27;15.90;99.90
10344;DHT22;5217;43.960;10.954;2024-02-15T11:45:03;16.00;99.90
10344;DHT22;5217;43.960;10.954;2024-02-15T11:47:34;16.00;99.90
10344;DHT22;5217;43.960;10.954;2024-02-15T11:50:07;16.10;99.90
10344;DHT22;5217;43.960;10.954;2024-02-15T11:52:40;16.10;99.90
10344;DHT22;5217;43.960;10.954;2024-02-15T11:55:10;16.20;99.90
10344;DHT22;5217;43.960;10.954;2024-02-15T11:57:40;16.20;99.90
10344;DHT22;5217;43.960;10.954;2024-02-15T12:00:22;16.30;99.90
10344;DHT22;5217;43.960;10.954;2024-02-15T12:03:09;16.40;99.90
10344;DHT22;5217;43.960;10.954;2024-02-15T12:05:55;16.50;99.90
10344;DHT22;5217;43.960;10.954;2024-02-15T12:08:46;16.60;99.90
10344;DHT22;5217;43.960;10.954;2024-02-15T12:11:33;16.70;99.90
10344;DHT22;5217;43.960;10.954;2024-02-15T12:14:19;16.80;99.90
10344;DHT22;5217;43.960;10.954;2024-02-15T12:17:06;16.90;99.90
10344;DHT22;5217;43.960;10.954;2024-02-15T12:19:53;17.00;99.90
10344;DHT22;5217;43.960;10.954;2024-02-15T12:22:25;17.00;99.90
10344;DHT22;5217;43.960;10.954;2024-02-15T12:24:57;17.00;99.90
10344;DHT22;5217;43.960;10.954;2024-02-15T12:27:26;17.00;99.90
10344;DHT22;5217;43.960;10.954;2024-02-15T12:29:56;17.00;99.90
10344;DHT22;5217;43.960;10.954;2024-02-15T12:32:26;17.10;99.90
10344;DHT22;5217;43.960;10.954;2024-02-15T12:35:10;17.00;99.90
10344;DHT22;5217;43.960;10.954;2024-02-15T12:37:43;17.10;99.90
10344;DHT22;5217;43.960;10.954;2024-02-15T12:40:13;17.00;99.90
10344;DHT22;5217;43.960;10.954;2024-02-15T12:42:45;17.10;99.90
10344;DHT22;5217;43.960;10.954;2024-02-15T12:45:17;17.20;99.90
10344;DHT22;5217;43.960;10.954;2024-02-15T12:47:50;17.30;99.90
10344;DHT22;5217;43.960;10.954;2024-02-15T12:50:20;17.30;99.90
10344;DHT22;5217;43.960;10.954;2024-02-15T12:52:49;17.40;99.90
10344;DHT22;5217;43.960;10.954;2024-02-15T12:55:23;17.50;99.90
10344;DHT22;5217;43.960;10.954;2024-02-15T12:57:53;17.60;99.90
10344;DHT22;5217;43.960;10.954;2024-02-15T13:00:25;17.70;99.90
10344;DHT22;5217;43.960;10.954;2024-02-15T13:02:56;17.70;99.90
10344;DHT22;5217;43.960;10.954;2024-02-15T13:05:26;17.80;99.90
10344;DHT22;5217;43.960;10.954;2024-02-15T13:07:55;17.90;98.90
10344;DHT22;5217;43.960;10.954;2024-02-15T13:10:27;17.90;98.60
10344;DHT22;5217;43.960;10.954;2024-02-15T13:12:56;18.00;98.40
10344;DHT22;5217;43.960;10.954;2024-02-15T13:15:25;18.10;97.90
10344;DHT22;5217;43.960;10.954;2024-02-15T13:18:01;18.20;97.70
10344;DHT22;5217;43.960;10.954;2024-02-15T13:20:32;18.20;97.90
10344;DHT22;5217;43.960;10.954;2024-02-15T13:23:05;18.30;98.00
10344;DHT22;5217;43.960;10.954;2024-02-15T13:25:38;18.40;98.00
10344;DHT22;5217;43.960;10.954;2024-02-15T13:28:08;18.50;98.10
10344;DHT22;5217;43.960;10.954;2024-02-15T13:30:37;18.50;98.30
10344;DHT22;5217;43.960;10.954;2024-02-15T13:33:06;18.50;98.20
10344;DHT22;5217;43.960;10.954;2024-02-15T13:35:35;18.50;97.60
10344;DHT22;5217;43.960;10.954;2024-02-15T13:38:03;18.50;97.60
10344;DHT22;5217;43.960;10.954;2024-02-15T13:40:32;18.50;96.90
10344;DHT22;5217;43.960;10.954;2024-02-15T13:43:02;18.50;96.40
10344;DHT22;5217;43.960;10.954;2024-02-15T13:45:39;18.60;95.90
10344;DHT22;5217;43.960;10.954;2024-02-15T13:48:08;18.50;95.80
10344;DHT22;5217;43.960;10.954;2024-02-15T13:50:37;18.60;95.30
10344;DHT22;5217;43.960;10.954;2024-02-15T13:53:07;18.60;94.90
10344;DHT22;5217;43.960;10.954;2024-02-15T13:55:37;18.60;95.10
10344;DHT22;5217;43.960;10.954;2024-02-15T13:58:08;18.60;95.30
10344;DHT22;5217;43.960;10.954;2024-02-15T14:00:40;18.60;95.90
10344;DHT22;5217;43.960;10.954;2024-02-15T14:03:11;18.60;95.60
10344;DHT22;5217;43.960;10.954;2024-02-15T14:05:42;18.60;95.30
10344;DHT22;5217;43.960;10.954;2024-02-15T14:08:13;18.60;93.70
10344;DHT22;5217;43.960;10.954;2024-02-15T14:10:42;18.60;94.00
10344;DHT22;5217;43.960;10.954;2024-02-15T14:13:13;18.60;94.70
10344;DHT22;5217;43.960;10.954;2024-02-15T14:15:41;18.60;94.80
10344;DHT22;5217;43.960;10.954;2024-02-15T14:18:11;18.70;94.70
10344;DHT22;5217;43.960;10.954;2024-02-15T14:20:42;18.70;94.60
10344;DHT22;5217;43.960;10.954;2024-02-15T14:23:11;18.70;94.60
10344;DHT22;5217;43.960;10.954;2024-02-15T14:25:42;18.80;93.80
10344;DHT22;5217;43.960;10.954;2024-02-15T14:28:14;18.80;93.40
10344;DHT22;5217;43.960;10.954;2024-02-15T14:30:43;18.80;92.70
10344;DHT22;5217;43.960;10.954;2024-02-15T14:33:29;18.90;92.60
10344;DHT22;5217;43.960;10.954;2024-02-15T14:36:02;18.90;92.70
10344;DHT22;5217;43.960;10.954;2024-02-15T14:38:31;18.90;93.40
10344;DHT22;5217;43.960;10.954;2024-02-15T14:41:01;18.90;93.00
10344;DHT22;5217;43.960;10.954;2024-02-15T14:43:36;18.80;92.50
10344;DHT22;5217;43.960;10.954;2024-02-15T14:46:05;18.90;92.30
10344;DHT22;5217;43.960;10.954;2024-02-15T14:48:35;18.80;92.40
10344;DHT22;5217;43.960;10.954;2024-02-15T14:51:07;18.80;92.70
10344;DHT22;5217;43.960;10.954;2024-02-15T14:53:37;18.80;92.40
10344;DHT22;5217;43.960;10.954;2024-02-15T14:56:06;18.80;92.70
10344;DHT22;5217;43.960;10.954;2024-02-15T14:58:36;18.80;92.80
10344;DHT22;5217;43.960;10.954;2024-02-15T15:01:05;18.80;93.30
10344;DHT22;5217;43.960;10.954;2024-02-15T15:03:36;18.80;93.40
10344;DHT22;5217;43.960;10.954;2024-02-15T15:06:07;18.80;93.30
10344;DHT22;5217;43.960;10.954;2024-02-15T15:08:54;18.80;93.20
10344;DHT22;5217;43.960;10.954;2024-02-15T15:11:42;18.80;93.60
10344;DHT22;5217;43.960;10.954;2024-02-15T15:14:35;18.80;94.00
10344;DHT22;5217;43.960;10.954;2024-02-15T15:17:04;18.80;94.00
10344;DHT22;5217;43.960;10.954;2024-02-15T15:19:32;18.80;94.20
10344;DHT22;5217;43.960;10.954;2024-02-15T15:22:02;18.70;93.80
10344;DHT22;5217;43.960;10.954;2024-02-15T15:24:31;18.70;93.80
10344;DHT22;5217;43.960;10.954;2024-02-15T15:27:00;18.70;93.40
10344;DHT22;5217;43.960;10.954;2024-02-15T15:29:32;18.70;93.10
10344;DHT22;5217;43.960;10.954;2024-02-15T15:32:02;18.70;93.30
10344;DHT22;5217;43.960;10.954;2024-02-15T15:34:31;18.70;93.60
10344;DHT22;5217;43.960;10.954;2024-02-15T15:37:00;18.70;93.50
10344;DHT22;5217;43.960;10.954;2024-02-15T15:39:28;18.70;93.40
10344;DHT22;5217;43.960;10.954;2024-02-15T15:42:00;18.70;93.50
10344;DHT22;5217;43.960;10.954;2024-02-15T15:44:30;18.70;93.40
10344;DHT22;5217;43.960;10.954;2024-02-15T15:46:58;18.60;92.90
10344;DHT22;5217;43.960;10.954;2024-02-15T15:49:28;18.60;93.20
10344;DHT22;5217;43.960;10.954;2024-02-15T15:51:59;18.60;93.90
10344;DHT22;5217;43.960;10.954;2024-02-15T15:54:27;18.60;95.20
10344;DHT22;5217;43.960;10.954;2024-02-15T15:56:56;18.60;97.00